createdAt,value
2023-02-15T00:00:11.349Z,100.00
2023-02-15T00:02:38.065Z,100.00
2023-02-15T00:05:05.168Z,100.00
2023-02-15T00:07:31.635Z,100.00
2023-02-15T00:09:58.183Z,100.00
2023-02-15T00:12:24.920Z,100.00
2023-02-15T00:14:51.325Z,100.00
2023-02-15T00:17:18.090Z,100.00
2023-02-15T00:38:31.872Z,100.00
2023-02-15T00:40:59.854Z,100.00
2023-02-15T00:43:27.970Z,100.00
2023-02-15T00:45:54.813Z,100.00
2023-02-15T00:48:22.186Z,100.00
2023-02-15T00:50:54.830Z,100.00
2023-02-15T00:53:21.923Z,100.00
2023-02-15T00:55:48.490Z,100.00
2023-02-15T00:58:15.718Z,100.00
2023-02-15T01:00:44.518Z,100.00
2023-02-15T01:03:12.655Z,100.00
2023-02-15T01:05:39.390Z,100.00
2023-02-15T01:08:06.470Z,100.00
2023-02-15T01:10:34.749Z,100.00
2023-02-15T01:13:01.359Z,100.00
2023-02-15T01:15:27.912Z,100.00
2023-02-15T01:17:54.531Z,100.00
2023-02-15T01:20:22.954Z,100.00
2023-02-15T01:22:50.775Z,100.00
2023-02-15T01:25:18.261Z,100.00
2023-02-15T01:27:45.421Z,100.00
2023-02-15T01:30:13.494Z,100.00
2023-02-15T01:32:40.635Z,100.00
2023-02-15T01:35:07.900Z,100.00
2023-02-15T01:37:35.409Z,100.00
2023-02-15T01:40:04.992Z,100.00
2023-02-15T01:42:31.491Z,100.00
2023-02-15T01:45:00.663Z,100.00
2023-02-15T01:47:39.641Z,100.00
2023-02-15T01:50:12.226Z,100.00
2023-02-15T01:52:46.347Z,100.00
2023-02-15T01:55:13.652Z,100.00
2023-02-15T01:57:40.878Z,100.00
2023-02-15T02:00:09.456Z,100.00
2023-02-15T02:02:36.785Z,100.00
2023-02-15T02:08:44.781Z,100.00
2023-02-15T02:11:13.053Z,100.00
2023-02-15T02:13:44.348Z,100.00
2023-02-15T02:16:19.939Z,100.00
2023-02-15T02:19:23.190Z,100.00
2023-02-15T02:22:08.155Z,100.00
2023-02-15T02:25:02.118Z,100.00
2023-02-15T02:27:41.033Z,100.00
2023-02-15T02:30:26.019Z,100.00
2023-02-15T02:33:46.309Z,100.00
2023-02-15T02:36:22.957Z,100.00
2023-02-15T02:38:55.822Z,100.00
2023-02-15T02:41:48.210Z,100.00
2023-02-15T02:44:20.113Z,100.00
2023-02-15T02:47:21.333Z,100.00
2023-02-15T02:49:47.842Z,100.00
2023-02-15T02:52:52.221Z,100.00
2023-02-15T02:55:27.417Z,100.00
2023-02-15T02:58:15.194Z,100.00
2023-02-15T03:00:56.462Z,100.00
2023-02-15T03:03:38.759Z,100.00
2023-02-15T03:06:11.898Z,100.00
2023-02-15T03:08:44.127Z,100.00
2023-02-15T03:11:12.528Z,100.00
2023-02-15T03:13:40.439Z,100.00
2023-02-15T03:16:27.938Z,100.00
2023-02-15T03:19:12.235Z,100.00
2023-02-15T03:22:04.814Z,100.00
2023-02-15T03:24:42.616Z,100.00
2023-02-15T03:27:18.453Z,100.00
2023-02-15T03:29:49.971Z,100.00
2023-02-15T03:32:16.746Z,100.00
2023-02-15T03:34:44.989Z,100.00
2023-02-15T03:37:20.959Z,100.00
2023-02-15T03:39:57.501Z,100.00
2023-02-15T03:42:30.407Z,100.00
2023-02-15T03:44:59.789Z,100.00
2023-02-15T03:47:34.733Z,100.00
2023-02-15T03:50:36.101Z,100.00
2023-02-15T03:53:05.887Z,100.00
2023-02-15T03:55:34.534Z,100.00
2023-02-15T03:58:19.638Z,100.00
2023-02-15T04:01:20.163Z,100.00
2023-02-15T04:03:56.205Z,100.00
2023-02-15T04:06:22.725Z,100.00
2023-02-15T04:09:07.888Z,100.00
2023-02-15T04:11:34.426Z,100.00
2023-02-15T04:14:20.872Z,100.00
2023-02-15T04:16:47.621Z,100.00
2023-02-15T04:19:32.558Z,100.00
2023-02-15T04:22:17.648Z,100.00
2023-02-15T04:25:02.848Z,100.00
2023-02-15T04:27:29.318Z,100.00
2023-02-15T04:29:55.847Z,100.00
2023-02-15T04:32:22.357Z,100.00
2023-02-15T04:34:48.784Z,100.00
2023-02-15T04:37:15.238Z,100.00
2023-02-15T04:39:41.852Z,100.00
2023-02-15T04:42:08.272Z,100.00
2023-02-15T04:44:34.685Z,100.00
2023-02-15T04:47:01.126Z,100.00
2023-02-15T04:49:27.577Z,100.00
2023-02-15T04:51:54.111Z,100.00
2023-02-15T04:54:20.654Z,100.00
2023-02-15T04:56:47.079Z,100.00
2023-02-15T04:59:14.570Z,100.00
2023-02-15T05:01:41.373Z,100.00
2023-02-15T05:04:08.434Z,100.00
2023-02-15T05:06:35.151Z,100.00
2023-02-15T05:09:01.941Z,100.00
2023-02-15T05:11:28.492Z,100.00
2023-02-15T05:13:55.133Z,100.00
2023-02-15T05:16:21.592Z,100.00
2023-02-15T05:18:48.046Z,100.00
2023-02-15T05:21:14.842Z,100.00
2023-02-15T05:23:41.269Z,100.00
2023-02-15T05:26:28.587Z,100.00
2023-02-15T05:28:55.105Z,100.00
2023-02-15T05:31:21.709Z,100.00
2023-02-15T07:10:35.018Z,100.00
2023-02-15T07:13:01.487Z,100.00
2023-02-15T07:15:28.065Z,100.00
2023-02-15T07:17:54.516Z,100.00
2023-02-15T07:20:22.568Z,100.00
2023-02-15T07:22:50.113Z,100.00
2023-02-15T08:47:46.362Z,100.00
2023-02-15T08:50:12.856Z,100.00
2023-02-15T08:52:39.401Z,100.00
2023-02-15T08:55:06.157Z,100.00
2023-02-15T08:57:32.540Z,100.00
2023-02-15T08:59:59.058Z,100.00
2023-02-15T09:02:25.623Z,100.00
2023-02-15T09:04:53.663Z,100.00
2023-02-15T09:07:20.152Z,100.00
2023-02-15T09:09:46.720Z,100.00
2023-02-15T09:12:13.254Z,100.00
2023-02-15T09:14:39.818Z,100.00
2023-02-15T09:17:06.994Z,100.00
2023-02-15T09:19:33.639Z,100.00
2023-02-15T09:22:00.148Z,100.00
2023-02-15T09:24:26.585Z,100.00
2023-02-15T09:26:53.064Z,100.00
2023-02-15T09:29:20.560Z,100.00
2023-02-15T09:31:49.870Z,100.00
2023-02-15T09:34:19.046Z,100.00
2023-02-15T09:36:47.514Z,100.00
2023-02-15T09:39:28.940Z,100.00
2023-02-15T09:42:01.322Z,100.00
2023-02-15T09:45:01.785Z,100.00
2023-02-15T11:12:57.590Z,100.00
2023-02-15T13:11:54.691Z,56.73
2023-02-15T13:14:46.182Z,55.17
2023-02-15T13:17:14.615Z,54.65
2023-02-15T13:19:55.409Z,58.35
2023-02-15T13:22:30.041Z,60.96
2023-02-15T13:25:04.403Z,76.43
2023-02-15T13:27:38.675Z,82.93
2023-02-15T13:30:23.296Z,86.31
2023-02-15T13:32:52.259Z,98.89
2023-02-15T13:35:19.966Z,100.00
2023-02-15T13:38:15.794Z,100.00
2023-02-15T13:41:02.604Z,100.00
2023-02-15T13:44:00.404Z,100.00
2023-02-15T13:46:33.354Z,100.00
2023-02-15T13:49:37.256Z,100.00
2023-02-15T13:52:23.684Z,100.00
2023-02-15T13:55:18.168Z,100.00
2023-02-15T13:58:12.018Z,100.00
2023-02-15T14:00:41.476Z,100.00
2023-02-15T14:03:32.672Z,100.00
2023-02-15T14:06:15.376Z,100.00
2023-02-15T14:08:51.454Z,100.00
2023-02-15T14:11:20.592Z,100.00
2023-02-15T14:14:19.987Z,100.00
2023-02-15T14:17:07.117Z,100.00
2023-02-15T14:20:20.247Z,100.00
2023-02-15T14:23:15.488Z,100.00
2023-02-15T14:25:55.211Z,100.00
2023-02-15T14:28:31.141Z,100.00
2023-02-15T14:30:58.476Z,100.00
2023-02-15T14:33:35.294Z,100.00
2023-02-15T14:36:04.985Z,100.00
2023-02-15T14:38:46.449Z,100.00
2023-02-15T14:41:22.329Z,100.00
2023-02-15T14:44:00.750Z,100.00
2023-02-15T14:46:42.525Z,100.00
2023-02-15T14:49:16.510Z,100.00
2023-02-15T14:51:51.611Z,100.00
2023-02-15T14:54:18.243Z,100.00
2023-02-15T14:56:46.049Z,100.00
2023-02-15T14:59:12.445Z,100.00
2023-02-15T15:01:40.525Z,100.00
2023-02-15T15:04:10.212Z,100.00
2023-02-15T15:06:40.459Z,100.00
2023-02-15T15:09:19.533Z,100.00
2023-02-15T15:12:13.712Z,100.00
2023-02-15T15:14:46.786Z,100.00
2023-02-15T15:17:38.785Z,100.00
2023-02-15T15:20:26.723Z,100.00
2023-02-15T15:23:15.611Z,100.00
2023-02-15T15:26:25.948Z,100.00
2023-02-15T15:28:52.356Z,100.00
2023-02-15T15:31:40.648Z,100.00
2023-02-15T15:34:25.553Z,100.00
2023-02-15T15:37:29.330Z,100.00
2023-02-15T15:40:08.069Z,100.00
2023-02-15T15:43:28.895Z,100.00
2023-02-15T15:46:25.500Z,100.00
2023-02-15T15:48:53.374Z,100.00
2023-02-15T15:51:26.943Z,100.00
2023-02-15T15:53:54.629Z,100.00
2023-02-15T15:56:35.607Z,100.00
2023-02-15T15:59:17.072Z,100.00
2023-02-15T16:01:44.880Z,100.00
2023-02-15T16:04:13.987Z,100.00
2023-02-15T16:06:41.946Z,100.00
2023-02-15T16:09:19.264Z,100.00
2023-02-15T16:11:54.163Z,100.00
2023-02-15T16:14:31.435Z,100.00
2023-02-15T16:17:01.510Z,100.00
2023-02-15T16:19:34.699Z,100.00
2023-02-15T16:22:03.432Z,100.00
2023-02-15T16:24:48.146Z,100.00
2023-02-15T16:27:21.857Z,100.00
2023-02-15T16:29:48.426Z,100.00
2023-02-15T16:32:24.196Z,100.00
2023-02-15T16:34:59.371Z,100.00
2023-02-15T16:37:28.582Z,100.00
2023-02-15T16:39:56.314Z,100.00
2023-02-15T16:42:23.084Z,100.00
2023-02-15T16:44:55.562Z,100.00
2023-02-15T16:47:26.298Z,100.00
2023-02-15T16:49:55.007Z,100.00
2023-02-15T16:52:25.115Z,100.00
2023-02-15T16:55:05.990Z,100.00
2023-02-15T16:57:36.292Z,100.00
2023-02-15T17:00:07.058Z,100.00
2023-02-15T17:02:55.003Z,100.00
2023-02-15T17:05:22.642Z,100.00
2023-02-15T17:08:27.420Z,100.00
2023-02-15T17:10:59.945Z,100.00
2023-02-15T17:13:28.199Z,100.00
2023-02-15T17:16:01.209Z,100.00
2023-02-15T17:18:29.301Z,100.00
2023-02-15T17:20:59.996Z,100.00
2023-02-15T17:23:33.685Z,100.00
2023-02-15T17:26:03.530Z,100.00
2023-02-15T17:28:32.182Z,100.00
2023-02-15T17:30:59.606Z,100.00
2023-02-15T17:33:35.379Z,100.00
2023-02-15T17:36:06.152Z,100.00
2023-02-15T17:38:33.819Z,100.00
2023-02-15T17:41:00.665Z,100.00
2023-02-15T17:43:27.440Z,100.00
2023-02-15T17:45:54.386Z,100.00
2023-02-15T17:48:36.452Z,100.00
2023-02-15T17:51:05.976Z,100.00
2023-02-15T17:53:33.129Z,100.00
2023-02-15T17:55:59.572Z,100.00
2023-02-15T17:58:26.071Z,100.00
2023-02-15T18:01:16.915Z,100.00
2023-02-15T18:04:09.979Z,100.00
2023-02-15T18:06:58.050Z,100.00
2023-02-15T18:09:43.640Z,100.00
2023-02-15T18:12:27.967Z,100.00
2023-02-15T18:14:55.982Z,100.00
2023-02-15T18:17:46.368Z,100.00
2023-02-15T18:20:20.431Z,100.00
2023-02-15T18:22:47.019Z,100.00
2023-02-15T18:25:15.357Z,100.00
2023-02-15T18:27:41.805Z,100.00
2023-02-15T18:30:09.031Z,100.00
2023-02-15T18:32:39.765Z,100.00
2023-02-15T18:35:06.736Z,100.00
2023-02-15T18:37:34.050Z,100.00
2023-02-15T18:40:03.604Z,100.00
2023-02-15T18:42:36.052Z,100.00
2023-02-15T18:45:13.027Z,100.00
2023-02-15T18:47:39.649Z,100.00
2023-02-15T18:50:07.342Z,100.00
2023-02-15T18:52:37.221Z,100.00
2023-02-15T18:55:17.433Z,100.00
2023-02-15T18:57:45.723Z,100.00
2023-02-15T19:00:25.691Z,100.00
2023-02-15T19:02:52.209Z,100.00
2023-02-15T19:05:18.684Z,100.00
